sensor_id;sensor_type;location;lat;lon;timestamp;pressure;altitude;pressure_sealevel;temperature;humidity
44675;BME280;30388;52.038;-1.478;2023-01-25T00:02:25;65180.05;;;4.59;100.00
44675;BME280;30388;52.038;-1.478;2023-01-25T00:04:52;65229.56;;;5.48;100.00
44675;BME280;30388;52.038;-1.478;2023-01-25T00:07:20;65221.94;;;4.90;100.00
44675;BME280;30388;52.038;-1.478;2023-01-25T00:09:47;65246.81;;;5.71;100.00
44675;BME280;30388;52.038;-1.478;2023-01-25T00:12:14;65234.63;;;5.55;100.00
44675;BME280;30388;52.038;-1.478;2023-01-25T00:14:41;65208.02;;;4.72;100.00
44675;BME280;30388;52.038;-1.478;2023-01-25T00:17:09;65185.73;;;4.67;100.00
44675;BME280;30388;52.038;-1.478;2023-01-25T00:19:37;65157.97;;;4.58;100.00
44675;BME280;30388;52.038;-1.478;2023-01-25T00:22:04;64943.88;;;2.31;100.00
44675;BME280;30388;52.038;-1.478;2023-01-25T00:24:32;64956.76;;;2.47;100.00
44675;BME280;30388;52.038;-1.478;2023-01-25T00:26:59;65094.47;;;4.00;100.00
44675;BME280;30388;52.038;-1.478;2023-01-25T00:29:26;65135.68;;;4.30;100.00
44675;BME280;30388;52.038;-1.478;2023-01-25T00:32:02;65201.74;;;5.14;100.00
44675;BME280;30388;52.038;-1.478;2023-01-25T00:34:49;65229.59;;;5.23;100.00
44675;BME280;30388;52.038;-1.478;2023-01-25T00:37:23;65266.67;;;5.47;100.00
44675;BME280;30388;52.038;-1.478;2023-01-25T00:39:50;65267.26;;;5.48;100.00
44675;BME280;30388;52.038;-1.478;2023-01-25T00:42:18;65242.08;;;5.16;100.00
44675;BME280;30388;52.038;-1.478;2023-01-25T00:44:45;65017.28;;;2.79;100.00
44675;BME280;30388;52.038;-1.478;2023-01-25T00:47:13;65025.84;;;2.89;100.00
44675;BME280;30388;52.038;-1.478;2023-01-25T00:49:41;65150.66;;;4.70;100.00
44675;BME280;30388;52.038;-1.478;2023-01-25T00:52:10;65036.70;;;3.48;100.00
44675;BME280;30388;52.038;-1.478;2023-01-25T00:54:39;65117.58;;;4.06;100.00
44675;BME280;30388;52.038;-1.478;2023-01-25T00:57:06;64873.24;;;1.66;100.00
44675;BME280;30388;52.038;-1.478;2023-01-25T00:59:34;64929.00;;;2.11;100.00
44675;BME280;30388;52.038;-1.478;2023-01-25T01:02:02;64846.80;;;1.33;100.00
44675;BME280;30388;52.038;-1.478;2023-01-25T01:04:29;64751.38;;;0.33;100.00
44675;BME280;30388;52.038;-1.478;2023-01-25T01:06:57;64959.37;;;2.99;100.00
44675;BME280;30388;52.038;-1.478;2023-01-25T01:09:24;64918.00;;;1.97;100.00
44675;BME280;30388;52.038;-1.478;2023-01-25T01:11:52;64956.25;;;2.45;100.00
44675;BME280;30388;52.038;-1.478;2023-01-25T01:14:21;64858.01;;;1.47;100.00
44675;BME280;30388;52.038;-1.478;2023-01-25T01:16:53;64930.11;;;2.39;100.00
44675;BME280;30388;52.038;-1.478;2023-01-25T01:19:20;64896.17;;;2.18;100.00
44675;BME280;30388;52.038;-1.478;2023-01-25T01:21:47;64955.33;;;2.44;100.00
44675;BME280;30388;52.038;-1.478;2023-01-25T01:24:15;64870.25;;;2.07;100.00
44675;BME280;30388;52.038;-1.478;2023-01-25T01:26:42;64834.42;;;1.17;100.00
44675;BME280;30388;52.038;-1.478;2023-01-25T01:29:11;64949.80;;;2.64;100.00
44675;BME280;30388;52.038;-1.478;2023-01-25T01:31:38;65035.95;;;3.47;100.00
44675;BME280;30388;52.038;-1.478;2023-01-25T01:34:05;64972.72;;;2.67;100.00
44675;BME280;30388;52.038;-1.478;2023-01-25T01:36:32;65026.34;;;3.36;100.00
44675;BME280;30388;52.038;-1.478;2023-01-25T01:39:00;65030.42;;;3.16;100.00
44675;BME280;30388;52.038;-1.478;2023-01-25T01:41:27;65070.53;;;3.47;100.00
44675;BME280;30388;52.038;-1.478;2023-01-25T01:43:54;65120.50;;;4.33;100.00
44675;BME280;30388;52.038;-1.478;2023-01-25T01:46:25;65103.39;;;3.89;100.00
44675;BME280;30388;52.038;-1.478;2023-01-25T01:48:57;65141.68;;;4.37;100.00
44675;BME280;30388;52.038;-1.478;2023-01-25T01:51:35;65190.02;;;4.99;100.00
44675;BME280;30388;52.038;-1.478;2023-01-25T01:54:08;65257.18;;;5.35;100.00
44675;BME280;30388;52.038;-1.478;2023-01-25T01:56:41;65261.63;;;5.42;100.00
44675;BME280;30388;52.038;-1.478;2023-01-25T01:59:10;65261.52;;;5.41;100.00
44675;BME280;30388;52.038;-1.478;2023-01-25T02:01:38;65254.43;;;5.32;100.00
44675;BME280;30388;52.038;-1.478;2023-01-25T02:04:07;65248.03;;;5.24;100.00
44675;BME280;30388;52.038;-1.478;2023-01-25T02:06:40;65208.81;;;5.23;100.00
44675;BME280;30388;52.038;-1.478;2023-01-25T02:09:11;65131.14;;;4.25;100.00
44675;BME280;30388;52.038;-1.478;2023-01-25T02:11:41;65136.21;;;4.04;100.00
44675;BME280;30388;52.038;-1.478;2023-01-25T02:14:10;65232.71;;;5.04;100.00
44675;BME280;30388;52.038;-1.478;2023-01-25T02:16:37;65146.73;;;4.43;100.00
44675;BME280;30388;52.038;-1.478;2023-01-25T02:19:07;65243.64;;;5.18;100.00
44675;BME280;30388;52.038;-1.478;2023-01-25T02:21:41;65171.55;;;4.76;100.00
44675;BME280;30388;52.038;-1.478;2023-01-25T02:24:15;65179.66;;;4.37;100.00
44675;BME280;30388;52.038;-1.478;2023-01-25T02:26:46;65225.00;;;5.16;100.00
44675;BME280;30388;52.038;-1.478;2023-01-25T02:29:13;65064.65;;;3.39;100.00
44675;BME280;30388;52.038;-1.478;2023-01-25T02:31:43;65154.53;;;4.54;100.00
44675;BME280;30388;52.038;-1.478;2023-01-25T02:34:10;65176.65;;;4.82;100.00
44675;BME280;30388;52.038;-1.478;2023-01-25T02:36:37;65219.32;;;5.09;100.00
44675;BME280;30388;52.038;-1.478;2023-01-25T02:39:06;65117.17;;;4.06;100.00
44675;BME280;30388;52.038;-1.478;2023-01-25T02:41:36;65137.72;;;4.33;100.00
44675;BME280;30388;52.038;-1.478;2023-01-25T02:44:06;65178.58;;;4.35;100.00
44675;BME280;30388;52.038;-1.478;2023-01-25T02:46:36;65162.75;;;4.38;100.00
44675;BME280;30388;52.038;-1.478;2023-01-25T02:49:06;65214.66;;;4.81;100.00
44675;BME280;30388;52.038;-1.478;2023-01-25T02:51:36;65165.68;;;4.18;100.00
44675;BME280;30388;52.038;-1.478;2023-01-25T02:54:07;65222.65;;;5.14;100.00
44675;BME280;30388;52.038;-1.478;2023-01-25T02:56:35;65182.63;;;4.63;100.00
44675;BME280;30388;52.038;-1.478;2023-01-25T02:59:03;65174.35;;;4.78;100.00
44675;BME280;30388;52.038;-1.478;2023-01-25T03:01:31;65199.23;;;4.85;100.00
44675;BME280;30388;52.038;-1.478;2023-01-25T03:03:58;65222.96;;;4.92;100.00
44675;BME280;30388;52.038;-1.478;2023-01-25T03:06:26;65231.41;;;5.02;100.00
44675;BME280;30388;52.038;-1.478;2023-01-25T03:08:52;65276.66;;;5.60;100.00
44675;BME280;30388;52.038;-1.478;2023-01-25T03:11:20;65323.57;;;5.70;100.00
44675;BME280;30388;52.038;-1.478;2023-01-25T03:13:47;65288.54;;;5.48;100.00
44675;BME280;30388;52.038;-1.478;2023-01-25T03:16:15;65278.99;;;5.63;100.00
44675;BME280;30388;52.038;-1.478;2023-01-25T03:18:42;65312.10;;;6.05;100.00
44675;BME280;30388;52.038;-1.478;2023-01-25T03:21:16;65326.88;;;5.97;100.00
44675;BME280;30388;52.038;-1.478;2023-01-25T03:23:47;65242.83;;;4.89;100.00
44675;BME280;30388;52.038;-1.478;2023-01-25T03:26:16;65173.51;;;4.29;100.00
44675;BME280;30388;52.038;-1.478;2023-01-25T03:28:43;65140.64;;;4.09;100.00
44675;BME280;30388;52.038;-1.478;2023-01-25T03:31:13;65107.66;;;3.94;100.00
44675;BME280;30388;52.038;-1.478;2023-01-25T03:33:41;65155.07;;;4.05;100.00
44675;BME280;30388;52.038;-1.478;2023-01-25T03:36:10;65083.58;;;3.64;100.00
44675;BME280;30388;52.038;-1.478;2023-01-25T03:38:37;65098.16;;;3.82;100.00
44675;BME280;30388;52.038;-1.478;2023-01-25T03:41:04;64950.27;;;2.16;100.00
44675;BME280;30388;52.038;-1.478;2023-01-25T03:43:31;65085.39;;;3.66;100.00
44675;BME280;30388;52.038;-1.478;2023-01-25T03:45:59;65169.40;;;4.73;100.00
44675;BME280;30388;52.038;-1.478;2023-01-25T03:48:28;65029.22;;;3.16;100.00
44675;BME280;30388;52.038;-1.478;2023-01-25T03:50:56;64977.50;;;2.73;100.00
44675;BME280;30388;52.038;-1.478;2023-01-25T03:53:25;65049.40;;;3.42;100.00
44675;BME280;30388;52.038;-1.478;2023-01-25T03:55:54;65119.91;;;4.32;100.00
44675;BME280;30388;52.038;-1.478;2023-01-25T03:58:22;65138.81;;;4.34;100.00
44675;BME280;30388;52.038;-1.478;2023-01-25T04:00:49;64986.78;;;2.63;100.00
44675;BME280;30388;52.038;-1.478;2023-01-25T04:03:16;65011.80;;;3.16;100.00
44675;BME280;30388;52.038;-1.478;2023-01-25T04:05:44;65020.95;;;3.06;100.00
44675;BME280;30388;52.038;-1.478;2023-01-25T04:08:11;64947.52;;;2.35;100.00
44675;BME280;30388;52.038;-1.478;2023-01-25T04:10:38;64948.53;;;2.37;100.00
44675;BME280;30388;52.038;-1.478;2023-01-25T04:13:05;64913.25;;;1.91;100.00
44675;BME280;30388;52.038;-1.478;2023-01-25T04:15:33;64931.08;;;2.41;100.00
44675;BME280;30388;52.038;-1.478;2023-01-25T04:17:59;64773.94;;;0.62;100.00
44675;BME280;30388;52.038;-1.478;2023-01-25T04:20:27;64951.93;;;2.67;100.00
44675;BME280;30388;52.038;-1.478;2023-01-25T04:22:54;64945.69;;;2.32;100.00
44675;BME280;30388;52.038;-1.478;2023-01-25T04:25:21;64983.12;;;2.81;100.00
44675;BME280;30388;52.038;-1.478;2023-01-25T04:27:49;65118.46;;;4.08;100.00
44675;BME280;30388;52.038;-1.478;2023-01-25T04:30:16;65166.36;;;4.69;100.00
44675;BME280;30388;52.038;-1.478;2023-01-25T04:32:44;65152.05;;;4.51;100.00
44675;BME280;30388;52.038;-1.478;2023-01-25T04:35:11;65208.05;;;5.22;100.00
44675;BME280;30388;52.038;-1.478;2023-01-25T04:37:38;65244.77;;;5.19;100.00
44675;BME280;30388;52.038;-1.478;2023-01-25T04:40:07;65205.42;;;4.69;100.00
44675;BME280;30388;52.038;-1.478;2023-01-25T04:42:34;65278.08;;;5.62;100.00
44675;BME280;30388;52.038;-1.478;2023-01-25T04:45:02;65250.58;;;5.27;100.00
44675;BME280;30388;52.038;-1.478;2023-01-25T04:47:29;65279.32;;;5.64;100.00
44675;BME280;30388;52.038;-1.478;2023-01-25T04:49:56;65289.92;;;5.50;100.00
44675;BME280;30388;52.038;-1.478;2023-01-25T04:52:23;65315.37;;;6.10;100.00
44675;BME280;30388;52.038;-1.478;2023-01-25T04:54:51;65316.45;;;5.84;100.00
44675;BME280;30388;52.038;-1.478;2023-01-25T04:57:18;65300.64;;;5.41;100.00
44675;BME280;30388;52.038;-1.478;2023-01-25T04:59:46;65347.13;;;6.23;100.00
44675;BME280;30388;52.038;-1.478;2023-01-25T05:02:13;65326.57;;;5.97;100.00
44675;BME280;30388;52.038;-1.478;2023-01-25T05:04:41;65371.65;;;6.31;100.00
44675;BME280;30388;52.038;-1.478;2023-01-25T05:07:08;65358.72;;;6.16;100.00
44675;BME280;30388;52.038;-1.478;2023-01-25T05:09:35;65398.86;;;6.89;100.00
44675;BME280;30388;52.038;-1.478;2023-01-25T05:12:03;65288.77;;;5.49;100.00
44675;BME280;30388;52.038;-1.478;2023-01-25T05:14:30;65335.96;;;6.09;100.00
44675;BME280;30388;52.038;-1.478;2023-01-25T05:16:57;65337.95;;;6.12;100.00
44675;BME280;30388;52.038;-1.478;2023-01-25T05:19:24;65331.92;;;6.04;100.00
44675;BME280;30388;52.038;-1.478;2023-01-25T05:21:51;65358.60;;;6.38;100.00
44675;BME280;30388;52.038;-1.478;2023-01-25T05:24:18;65355.24;;;6.33;100.00
44675;BME280;30388;52.038;-1.478;2023-01-25T05:26:46;65333.32;;;5.84;100.00
44675;BME280;30388;52.038;-1.478;2023-01-25T05:29:14;65397.26;;;6.65;100.00
44675;BME280;30388;52.038;-1.478;2023-01-25T05:31:41;65250.15;;;4.77;100.00
44675;BME280;30388;52.038;-1.478;2023-01-25T05:34:08;65354.77;;;6.32;100.00
44675;BME280;30388;52.038;-1.478;2023-01-25T05:36:36;65348.74;;;6.25;100.00
44675;BME280;30388;52.038;-1.478;2023-01-25T05:39:04;65328.19;;;5.76;100.00
44675;BME280;30388;52.038;-1.478;2023-01-25T05:41:31;65284.07;;;5.42;100.00
44675;BME280;30388;52.038;-1.478;2023-01-25T05:43:59;65342.80;;;6.17;100.00
44675;BME280;30388;52.038;-1.478;2023-01-25T05:46:27;65348.79;;;6.25;100.00
44675;BME280;30388;52.038;-1.478;2023-01-25T05:48:54;65187.40;;;4.21;100.00
44675;BME280;30388;52.038;-1.478;2023-01-25T05:51:21;65272.30;;;5.54;100.00
44675;BME280;30388;52.038;-1.478;2023-01-25T05:53:48;65221.59;;;4.64;100.00
44675;BME280;30388;52.038;-1.478;2023-01-25T05:56:17;65242.56;;;5.16;100.00
44675;BME280;30388;52.038;-1.478;2023-01-25T05:58:44;65130.19;;;3.97;100.00
44675;BME280;30388;52.038;-1.478;2023-01-25T06:01:10;65279.03;;;5.63;100.00
44675;BME280;30388;52.038;-1.478;2023-01-25T06:03:38;65262.61;;;5.43;100.00
44675;BME280;30388;52.038;-1.478;2023-01-25T06:06:05;65312.26;;;5.79;100.00
44675;BME280;30388;52.038;-1.478;2023-01-25T06:08:32;65352.02;;;6.30;100.00
44675;BME280;30388;52.038;-1.478;2023-01-25T06:11:05;65405.40;;;6.74;100.00
44675;BME280;30388;52.038;-1.478;2023-01-25T06:13:33;65332.69;;;5.82;100.00
44675;BME280;30388;52.038;-1.478;2023-01-25T06:16:01;65326.03;;;5.96;100.00
44675;BME280;30388;52.038;-1.478;2023-01-25T06:18:29;65348.08;;;6.24;100.00
44675;BME280;30388;52.038;-1.478;2023-01-25T06:20:57;65298.73;;;5.88;100.00
44675;BME280;30388;52.038;-1.478;2023-01-25T06:23:25;65258.92;;;5.37;100.00
44675;BME280;30388;52.038;-1.478;2023-01-25T06:25:57;65341.44;;;6.15;100.00
44675;BME280;30388;52.038;-1.478;2023-01-25T06:28:25;65342.98;;;6.18;100.00
44675;BME280;30388;52.038;-1.478;2023-01-25T06:30:52;65214.62;;;4.82;100.00
44675;BME280;30388;52.038;-1.478;2023-01-25T06:33:19;65321.22;;;6.16;100.00
44675;BME280;30388;52.038;-1.478;2023-01-25T06:35:46;65244.57;;;4.92;100.00
44675;BME280;30388;52.038;-1.478;2023-01-25T06:38:13;65332.14;;;6.03;100.00
44675;BME280;30388;52.038;-1.478;2023-01-25T06:40:41;65304.99;;;5.70;100.00
44675;BME280;30388;52.038;-1.478;2023-01-25T06:43:10;65320.59;;;5.90;100.00
44675;BME280;30388;52.038;-1.478;2023-01-25T06:45:37;65321.99;;;5.91;100.00
44675;BME280;30388;52.038;-1.478;2023-01-25T06:48:04;65298.39;;;5.88;100.00
44675;BME280;30388;52.038;-1.478;2023-01-25T06:50:33;65354.27;;;6.32;100.00
44675;BME280;30388;52.038;-1.478;2023-01-25T06:53:00;65381.26;;;6.44;100.00
44675;BME280;30388;52.038;-1.478;2023-01-25T06:55:28;65412.75;;;6.84;100.00
44675;BME280;30388;52.038;-1.478;2023-01-25T06:57:59;65401.74;;;6.70;100.00
44675;BME280;30388;52.038;-1.478;2023-01-25T07:00:26;65327.09;;;5.97;100.00
44675;BME280;30388;52.038;-1.478;2023-01-25T07:02:53;65275.08;;;5.09;100.00
44675;BME280;30388;52.038;-1.478;2023-01-25T07:05:20;65367.67;;;6.48;100.00
44675;BME280;30388;52.038;-1.478;2023-01-25T07:07:48;65419.62;;;6.93;100.00
44675;BME280;30388;52.038;-1.478;2023-01-25T07:10:15;65347.79;;;6.02;100.00
44675;BME280;30388;52.038;-1.478;2023-01-25T07:12:43;65384.74;;;6.49;100.00
44675;BME280;30388;52.038;-1.478;2023-01-25T07:15:10;65423.58;;;6.97;100.00
44675;BME280;30388;52.038;-1.478;2023-01-25T07:17:38;65181.22;;;4.39;100.00
44675;BME280;30388;52.038;-1.478;2023-01-25T07:20:06;65321.83;;;5.90;100.00
44675;BME280;30388;52.038;-1.478;2023-01-25T07:22:33;65346.82;;;5.99;100.00
44675;BME280;30388;52.038;-1.478;2023-01-25T07:25:01;65343.95;;;6.18;100.00
44675;BME280;30388;52.038;-1.478;2023-01-25T07:27:28;65268.16;;;5.23;100.00
44675;BME280;30388;52.038;-1.478;2023-01-25T07:29:58;65308.95;;;5.74;100.00
44675;BME280;30388;52.038;-1.478;2023-01-25T07:32:26;65320.20;;;5.66;100.00
44675;BME280;30388;52.038;-1.478;2023-01-25T07:34:53;65401.95;;;6.70;100.00
44675;BME280;30388;52.038;-1.478;2023-01-25T07:37:20;65349.53;;;5.81;100.00
44675;BME280;30388;52.038;-1.478;2023-01-25T07:39:48;65305.07;;;5.47;100.00
44675;BME280;30388;52.038;-1.478;2023-01-25T07:42:15;65336.71;;;5.87;100.00
44675;BME280;30388;52.038;-1.478;2023-01-25T07:44:42;65384.24;;;6.47;100.00
44675;BME280;30388;52.038;-1.478;2023-01-25T07:47:10;65349.46;;;6.03;100.00
44675;BME280;30388;52.038;-1.478;2023-01-25T07:49:37;65363.41;;;6.21;100.00
44675;BME280;30388;52.038;-1.478;2023-01-25T07:52:04;65411.02;;;6.81;100.00
44675;BME280;30388;52.038;-1.478;2023-01-25T07:54:32;65414.74;;;6.87;100.00
44675;BME280;30388;52.038;-1.478;2023-01-25T07:56:59;65422.54;;;6.74;100.00
44675;BME280;30388;52.038;-1.478;2023-01-25T07:59:27;65436.68;;;6.64;100.00
44675;BME280;30388;52.038;-1.478;2023-01-25T08:01:54;65443.56;;;7.01;100.00
44675;BME280;30388;52.038;-1.478;2023-01-25T08:04:20;65340.20;;;5.69;100.00
44675;BME280;30388;52.038;-1.478;2023-01-25T08:06:47;65364.11;;;6.22;100.00
44675;BME280;30388;52.038;-1.478;2023-01-25T08:09:16;65376.43;;;6.38;100.00
44675;BME280;30388;52.038;-1.478;2023-01-25T08:11:44;65389.43;;;6.55;100.00
44675;BME280;30388;52.038;-1.478;2023-01-25T08:14:11;65339.82;;;5.91;100.00
44675;BME280;30388;52.038;-1.478;2023-01-25T08:16:38;65398.38;;;6.66;100.00
44675;BME280;30388;52.038;-1.478;2023-01-25T08:19:05;65287.21;;;5.47;100.00
44675;BME280;30388;52.038;-1.478;2023-01-25T08:21:33;65290.78;;;5.51;100.00
44675;BME280;30388;52.038;-1.478;2023-01-25T08:24:02;65370.45;;;6.30;100.00
44675;BME280;30388;52.038;-1.478;2023-01-25T08:26:30;65370.48;;;6.53;100.00
44675;BME280;30388;52.038;-1.478;2023-01-25T08:28:58;65391.16;;;6.79;100.00
44675;BME280;30388;52.038;-1.478;2023-01-25T08:31:27;65383.70;;;6.46;100.00
44675;BME280;30388;52.038;-1.478;2023-01-25T08:33:55;65421.57;;;6.95;100.00
44675;BME280;30388;52.038;-1.478;2023-01-25T08:36:23;65426.01;;;7.01;100.00
44675;BME280;30388;52.038;-1.478;2023-01-25T08:38:53;65349.87;;;6.04;100.00
44675;BME280;30388;52.038;-1.478;2023-01-25T08:41:21;65404.75;;;6.74;100.00
44675;BME280;30388;52.038;-1.478;2023-01-25T08:43:51;65387.01;;;6.51;100.00
44675;BME280;30388;52.038;-1.478;2023-01-25T08:46:19;65407.46;;;6.78;100.00
44675;BME280;30388;52.038;-1.478;2023-01-25T08:48:52;65418.53;;;6.91;100.00
44675;BME280;30388;52.038;-1.478;2023-01-25T08:51:20;65291.81;;;5.31;100.00
44675;BME280;30388;52.038;-1.478;2023-01-25T08:53:47;65289.83;;;5.28;100.00
44675;BME280;30388;52.038;-1.478;2023-01-25T08:56:15;65290.98;;;5.78;100.00
44675;BME280;30388;52.038;-1.478;2023-01-25T08:58:44;65370.00;;;6.30;100.00
44675;BME280;30388;52.038;-1.478;2023-01-25T09:01:13;65407.39;;;6.77;100.00
44675;BME280;30388;52.038;-1.478;2023-01-25T09:03:43;65417.80;;;6.68;100.00
44675;BME280;30388;52.038;-1.478;2023-01-25T09:06:11;65423.62;;;6.97;100.00
44675;BME280;30388;52.038;-1.478;2023-01-25T09:08:40;65356.27;;;6.11;100.00
44675;BME280;30388;52.038;-1.478;2023-01-25T09:11:09;65405.61;;;6.75;100.00
44675;BME280;30388;52.038;-1.478;2023-01-25T09:13:42;65347.81;;;6.24;100.00
44675;BME280;30388;52.038;-1.478;2023-01-25T09:16:12;65214.71;;;4.81;100.00
44675;BME280;30388;52.038;-1.478;2023-01-25T09:18:41;65180.02;;;4.59;100.00
44675;BME280;30388;52.038;-1.478;2023-01-25T09:21:10;65177.99;;;4.84;100.00
44675;BME280;30388;52.038;-1.478;2023-01-25T09:23:38;65127.84;;;3.94;100.00
44675;BME280;30388;52.038;-1.478;2023-01-25T09:26:05;65088.49;;;3.70;100.00
44675;BME280;30388;52.038;-1.478;2023-01-25T09:28:33;65076.27;;;3.55;100.00
44675;BME280;30388;52.038;-1.478;2023-01-25T09:31:02;65134.69;;;4.02;100.00
44675;BME280;30388;52.038;-1.478;2023-01-25T09:33:32;65197.46;;;4.82;100.00
44675;BME280;30388;52.038;-1.478;2023-01-25T09:36:00;65170.28;;;4.75;100.00
44675;BME280;30388;52.038;-1.478;2023-01-25T09:38:28;65241.41;;;5.16;100.00
44675;BME280;30388;52.038;-1.478;2023-01-25T09:41:05;65334.05;;;5.85;100.00
44675;BME280;30388;52.038;-1.478;2023-01-25T09:43:53;65396.56;;;6.63;100.00
44675;BME280;30388;52.038;-1.478;2023-01-25T09:46:33;65471.45;;;7.36;100.00
44675;BME280;30388;52.038;-1.478;2023-01-25T09:49:13;65412.92;;;6.62;100.00
44675;BME280;30388;52.038;-1.478;2023-01-25T09:51:55;65424.17;;;6.99;100.00
44675;BME280;30388;52.038;-1.478;2023-01-25T09:54:28;65414.25;;;6.86;100.00
44675;BME280;30388;52.038;-1.478;2023-01-25T09:56:58;65446.94;;;7.27;100.00
44675;BME280;30388;52.038;-1.478;2023-01-25T09:59:26;65410.18;;;6.59;100.00
44675;BME280;30388;52.038;-1.478;2023-01-25T10:01:58;65470.16;;;7.08;100.00
44675;BME280;30388;52.038;-1.478;2023-01-25T10:04:29;65380.75;;;6.44;100.00
44675;BME280;30388;52.038;-1.478;2023-01-25T10:07:03;65358.23;;;5.94;100.00
44675;BME280;30388;52.038;-1.478;2023-01-25T10:09:41;65457.16;;;7.18;100.00
44675;BME280;30388;52.038;-1.478;2023-01-25T10:12:17;65358.63;;;6.15;100.00
44675;BME280;30388;52.038;-1.478;2023-01-25T10:14:45;65388.62;;;6.31;100.00
44675;BME280;30388;52.038;-1.478;2023-01-25T10:17:17;65412.39;;;6.84;100.00
44675;BME280;30388;52.038;-1.478;2023-01-25T10:19:58;65397.73;;;6.42;100.00
44675;BME280;30388;52.038;-1.478;2023-01-25T10:22:29;65350.07;;;6.04;100.00
44675;BME280;30388;52.038;-1.478;2023-01-25T10:25:23;65468.68;;;7.06;100.00
44675;BME280;30388;52.038;-1.478;2023-01-25T10:28:06;65316.73;;;5.62;100.00
44675;BME280;30388;52.038;-1.478;2023-01-25T10:30:40;65339.24;;;6.13;100.00
44675;BME280;30388;52.038;-1.478;2023-01-25T10:33:13;65461.35;;;7.46;100.00
44675;BME280;30388;52.038;-1.478;2023-01-25T10:35:44;65477.90;;;7.18;100.00
44675;BME280;30388;52.038;-1.478;2023-01-25T10:38:26;65472.08;;;7.37;100.00
44675;BME280;30388;52.038;-1.478;2023-01-25T10:40:59;65520.82;;;7.99;100.00
44675;BME280;30388;52.038;-1.478;2023-01-25T10:43:27;65412.67;;;6.62;100.00
44675;BME280;30388;52.038;-1.478;2023-01-25T10:45:54;65327.81;;;5.98;100.00
44675;BME280;30388;52.038;-1.478;2023-01-25T10:48:25;65310.04;;;5.76;100.00
44675;BME280;30388;52.038;-1.478;2023-01-25T10:50:54;65346.32;;;6.00;100.00
44675;BME280;30388;52.038;-1.478;2023-01-25T10:53:32;65421.51;;;6.46;100.00
44675;BME280;30388;52.038;-1.478;2023-01-25T10:56:05;65519.61;;;7.71;100.00
44675;BME280;30388;52.038;-1.478;2023-01-25T10:58:40;65509.81;;;7.58;100.00
44675;BME280;30388;52.038;-1.478;2023-01-25T11:01:11;65529.85;;;7.61;100.00
44675;BME280;30388;52.038;-1.478;2023-01-25T11:03:41;65586.56;;;8.34;100.00
44675;BME280;30388;52.038;-1.478;2023-01-25T11:06:10;65580.88;;;8.47;100.00
44675;BME280;30388;52.038;-1.478;2023-01-25T11:08:38;65574.94;;;8.41;100.00
44675;BME280;30388;52.038;-1.478;2023-01-25T11:11:23;65386.95;;;6.02;100.00
44675;BME280;30388;52.038;-1.478;2023-01-25T11:13:51;65287.16;;;5.47;100.00
44675;BME280;30388;52.038;-1.478;2023-01-25T11:16:27;65500.97;;;7.47;100.00
44675;BME280;30388;52.038;-1.478;2023-01-25T11:18:56;65459.50;;;7.21;100.00
44675;BME280;30388;52.038;-1.478;2023-01-25T11:21:26;65355.60;;;6.11;100.00
44675;BME280;30388;52.038;-1.478;2023-01-25T11:24:00;65364.58;;;6.22;100.00
44675;BME280;30388;52.038;-1.478;2023-01-25T11:26:28;65291.10;;;5.53;100.00
44675;BME280;30388;52.038;-1.478;2023-01-25T11:29:14;65292.63;;;5.80;100.00
44675;BME280;30388;52.038;-1.478;2023-01-25T11:31:43;65493.69;;;7.38;100.00
44675;BME280;30388;52.038;-1.478;2023-01-25T11:34:14;65316.50;;;5.84;100.00
44675;BME280;30388;52.038;-1.478;2023-01-25T11:36:54;65389.54;;;6.77;100.00
44675;BME280;30388;52.038;-1.478;2023-01-25T11:39:33;65307.24;;;5.72;100.00
44675;BME280;30388;52.038;-1.478;2023-01-25T11:42:11;65368.53;;;6.28;100.00
44675;BME280;30388;52.038;-1.478;2023-01-25T11:45:13;65438.02;;;7.17;100.00
44675;BME280;30388;52.038;-1.478;2023-01-25T11:47:53;65375.30;;;6.14;100.00
44675;BME280;30388;52.038;-1.478;2023-01-25T11:50:32;65237.02;;;5.09;100.00
44675;BME280;30388;52.038;-1.478;2023-01-25T11:53:25;65484.37;;;7.53;100.00
44675;BME280;30388;52.038;-1.478;2023-01-25T11:56:00;65457.88;;;7.19;100.00
44675;BME280;30388;52.038;-1.478;2023-01-25T11:58:42;65245.77;;;5.21;100.00
44675;BME280;30388;52.038;-1.478;2023-01-25T12:01:22;65421.84;;;6.96;100.00
44675;BME280;30388;52.038;-1.478;2023-01-25T12:04:09;65285.11;;;5.44;100.00
44675;BME280;30388;52.038;-1.478;2023-01-25T12:06:53;65251.40;;;5.28;100.00
44675;BME280;30388;52.038;-1.478;2023-01-25T12:09:34;65356.34;;;6.12;100.00
44675;BME280;30388;52.038;-1.478;2023-01-25T12:12:15;65448.34;;;7.29;100.00
44675;BME280;30388;52.038;-1.478;2023-01-25T12:14:57;65415.39;;;6.87;100.00
44675;BME280;30388;52.038;-1.478;2023-01-25T12:17:38;65257.11;;;5.36;100.00
44675;BME280;30388;52.038;-1.478;2023-01-25T12:20:21;65278.80;;;5.62;100.00
44675;BME280;30388;52.038;-1.478;2023-01-25T12:23:05;65032.15;;;3.43;100.00
44675;BME280;30388;52.038;-1.478;2023-01-25T12:25:43;65145.87;;;4.66;100.00
44675;BME280;30388;52.038;-1.478;2023-01-25T12:28:19;65222.92;;;4.92;100.00
44675;BME280;30388;52.038;-1.478;2023-01-25T12:30:52;65302.64;;;5.67;100.00
44675;BME280;30388;52.038;-1.478;2023-01-25T12:33:27;65180.88;;;4.39;100.00
44675;BME280;30388;52.038;-1.478;2023-01-25T12:36:01;65109.21;;;3.97;100.00
44675;BME280;30388;52.038;-1.478;2023-01-25T12:38:35;65041.66;;;3.33;100.00
44675;BME280;30388;52.038;-1.478;2023-01-25T12:41:12;65169.15;;;4.73;100.00
44675;BME280;30388;52.038;-1.478;2023-01-25T12:43:49;65146.51;;;4.44;100.00
44675;BME280;30388;52.038;-1.478;2023-01-25T12:46:26;65184.18;;;4.91;100.00
44675;BME280;30388;52.038;-1.478;2023-01-25T12:48:58;65211.07;;;4.77;100.00
44675;BME280;30388;52.038;-1.478;2023-01-25T12:51:34;65288.83;;;5.75;100.00
44675;BME280;30388;52.038;-1.478;2023-01-25T12:54:09;65268.53;;;5.50;100.00
44675;BME280;30388;52.038;-1.478;2023-01-25T12:56:44;65243.13;;;5.17;100.00
44675;BME280;30388;52.038;-1.478;2023-01-25T12:59:17;65118.24;;;4.29;100.00
44675;BME280;30388;52.038;-1.478;2023-01-25T13:01:53;65119.14;;;4.31;100.00
44675;BME280;30388;52.038;-1.478;2023-01-25T13:04:34;65124.28;;;4.15;100.00
44675;BME280;30388;52.038;-1.478;2023-01-25T13:07:12;65130.37;;;4.23;100.00